Time;durP1;ratioP1;P1;durP2;ratioP2;P2;SDS_P1;SDS_P2;PMS_P1;PMS_P2;Temp;Humidity;BMP_temperature;BMP_pressure;BME280_temperature;BME280_humidity;BME280_pressure;Samples;Min_cycle;Max_cycle;Signal;HPM_P1;HPM_P2
2024/04/22 00:01:23;;;;;;;1.67;1.15;;;8.70;60.00;10.50;102538.00;;;;5315021;26;20330;-76
2024/04/22 00:03:49;;;;;;;1.95;1.20;;;8.70;60.00;10.50;102539.00;;;;5322677;26;20312;-76
2024/04/22 00:06:18;;;;;;;1.95;1.58;;;8.60;60.00;10.50;102534.00;;;;5336328;26;20596;-76
2024/04/22 00:08:46;;;;;;;1.63;1.40;;;8.60;60.70;10.40;102538.00;;;;5344175;26;20235;-76
2024/04/22 00:11:15;;;;;;;1.77;1.40;;;8.60;60.10;10.40;102540.00;;;;5339655;26;20239;-76
2024/04/22 00:13:41;;;;;;;1.90;1.70;;;8.60;60.20;10.40;102537.00;;;;5330313;26;20244;-76
2024/04/22 00:16:09;;;;;;;2.10;1.70;;;8.50;60.10;10.40;102530.00;;;;5316922;26;20717;-76
2024/04/22 00:18:35;;;;;;;1.88;1.38;;;8.50;60.10;10.40;102536.00;;;;5321598;26;20335;-76
2024/04/22 00:21:04;;;;;;;1.67;1.27;;;8.50;60.80;10.40;102525.00;;;;5330683;26;20250;-76
2024/04/22 00:23:30;;;;;;;1.80;1.30;;;8.50;60.50;10.30;102537.00;;;;5329155;26;20236;-76
2024/04/22 00:26:02;;;;;;;2.15;1.55;;;8.50;60.20;10.30;102527.00;;;;5309958;26;20351;-76
2024/04/22 00:28:28;;;;;;;2.83;1.33;;;8.50;60.20;10.30;102528.00;;;;5318684;26;20275;-76
2024/04/22 00:30:57;;;;;;;2.95;1.48;;;8.50;60.20;10.30;102527.00;;;;5315301;26;20275;-76
2024/04/22 00:33:23;;;;;;;2.38;1.55;;;8.40;60.20;10.30;102532.00;;;;5332531;26;20251;-76
2024/04/22 00:35:57;;;;;;;3.20;1.95;;;8.50;60.30;10.20;102535.00;;;;5340527;26;20236;-76
2024/04/22 00:38:25;;;;;;;2.10;1.65;;;8.40;60.30;10.20;102536.00;;;;5318669;26;20331;-76
2024/04/22 00:40:54;;;;;;;2.25;1.52;;;8.40;60.40;10.20;102528.00;;;;5358548;26;20600;-76
2024/04/22 00:43:23;;;;;;;2.67;1.63;;;8.40;60.40;10.20;102528.00;;;;5337932;26;20675;-76
2024/04/22 00:45:53;;;;;;;2.67;1.70;;;8.40;60.40;10.20;102526.00;;;;5325763;26;20735;-76
2024/04/22 00:48:22;;;;;;;2.10;1.60;;;8.40;60.40;10.20;102520.00;;;;5323230;26;21902;-76
2024/04/22 00:50:54;;;;;;;2.40;1.70;;;8.40;60.40;10.20;102520.00;;;;5336071;26;20786;-77
2024/04/22 00:53:21;;;;;;;2.50;1.55;;;8.40;60.40;10.20;102521.00;;;;5319039;26;20236;-76
2024/04/22 00:55:51;;;;;;;4.45;1.60;;;8.40;60.40;10.20;102521.00;;;;5315844;26;20248;-76
2024/04/22 00:58:19;;;;;;;2.17;1.67;;;8.40;60.40;10.20;102524.00;;;;5320721;26;20345;-76
2024/04/22 01:00:52;;;;;;;4.00;1.70;;;8.40;60.40;10.10;102526.00;;;;5328886;26;20282;-76
2024/04/22 01:03:18;;;;;;;1.80;1.60;;;8.30;60.30;10.20;102522.00;;;;5333288;26;20235;-76
2024/04/22 01:05:47;;;;;;;1.85;1.45;;;8.30;60.40;10.10;102514.00;;;;5330673;26;20227;-76
2024/04/22 01:08:14;;;;;;;2.03;1.35;;;8.30;60.40;10.10;102524.00;;;;5317648;26;20359;-76
2024/04/22 01:10:43;;;;;;;2.67;1.25;;;8.30;60.50;10.00;102521.00;;;;5332057;26;20718;-76
2024/04/22 01:13:09;;;;;;;1.70;1.48;;;8.30;60.50;10.00;102514.00;;;;5333923;26;20243;-76
2024/04/22 01:15:38;;;;;;;1.67;1.45;;;8.20;60.40;10.00;102517.00;;;;5341582;26;20269;-76
2024/04/22 01:18:06;;;;;;;1.75;1.48;;;8.20;60.30;9.90;102518.00;;;;5329402;26;20229;-76
2024/04/22 01:20:35;;;;;;;1.88;1.30;;;8.20;60.30;9.90;102506.00;;;;5332349;26;20378;-76
2024/04/22 01:23:05;;;;;;;1.80;1.20;;;8.10;60.20;9.90;102500.00;;;;5340032;26;20232;-76
2024/04/22 01:25:36;;;;;;;1.67;1.38;;;8.10;60.20;9.90;102507.00;;;;5332726;26;20598;-76
2024/04/22 01:28:04;;;;;;;1.33;1.23;;;8.10;60.20;9.80;102509.00;;;;5318382;26;20248;-76
2024/04/22 01:30:33;;;;;;;1.92;1.20;;;8.00;60.20;9.80;102506.00;;;;5349304;26;20235;-76
2024/04/22 01:32:59;;;;;;;1.50;1.02;;;8.00;60.10;9.80;102509.00;;;;5332572;26;20237;-76
2024/04/22 01:35:28;;;;;;;1.77;1.23;;;7.90;60.00;9.70;102503.00;;;;5315188;26;20334;-76
2024/04/22 01:37:54;;;;;;;1.63;1.30;;;7.90;60.00;9.70;102501.00;;;;5329201;26;20236;-76
2024/04/22 01:40:25;;;;;;;1.50;1.13;;;7.90;60.10;9.60;102498.00;;;;5338039;26;20807;-76
2024/04/22 01:42:51;;;;;;;1.35;1.17;;;7.80;60.10;9.60;102500.00;;;;5322216;26;20244;-76
2024/04/22 01:45:20;;;;;;;1.52;1.20;;;7.80;60.10;9.60;102501.00;;;;5323196;26;20299;-76
2024/04/22 01:47:47;;;;;;;1.70;1.17;;;7.70;60.20;9.50;102502.00;;;;5316287;26;20263;-76
2024/04/22 01:50:15;;;;;;;2.03;1.30;;;7.70;60.20;9.50;102490.00;;;;5317230;26;20600;-76
2024/04/22 01:52:41;;;;;;;1.83;1.40;;;7.70;60.30;9.50;102492.00;;;;5319195;26;20243;-76
2024/04/22 01:55:10;;;;;;;1.75;1.45;;;7.60;60.30;9.50;102492.00;;;;5330937;26;20248;-76
2024/04/22 01:57:38;;;;;;;2.38;1.42;;;7.60;60.30;9.40;102491.00;;;;5339044;26;20755;-76
2024/04/22 02:00:09;;;;;;;1.75;1.40;;;7.60;60.30;9.40;102483.00;;;;5342550;26;20236;-76
2024/04/22 02:02:35;;;;;;;1.60;1.40;;;7.50;60.40;9.40;102484.00;;;;5343873;26;20235;-76
2024/04/22 02:05:05;;;;;;;2.03;1.40;;;7.50;60.40;9.40;102486.00;;;;5342784;26;20277;-76
2024/04/22 02:07:31;;;;;;;1.90;1.20;;;7.50;60.40;9.30;102476.00;;;;5333881;26;20279;-76
2024/04/22 02:10:00;;;;;;;1.80;1.48;;;7.40;60.30;9.30;102477.00;;;;5321727;26;20274;-76
2024/04/22 02:12:26;;;;;;;1.23;1.10;;;7.40;60.40;9.30;102471.00;;;;5322159;26;20342;-76
2024/04/22 02:14:57;;;;;;;2.10;1.27;;;7.40;60.40;9.20;102469.00;;;;5335357;26;20856;-76
2024/04/22 02:17:23;;;;;;;1.85;1.50;;;7.40;60.40;9.20;102470.00;;;;5335584;26;20321;-76
2024/04/22 02:19:51;;;;;;;2.38;1.40;;;7.30;60.50;9.20;102472.00;;;;5333567;26;20235;-76
2024/04/22 02:22:18;;;;;;;2.55;1.55;;;7.30;60.50;9.20;102460.00;;;;5339880;26;20888;-76
2024/04/22 02:24:46;;;;;;;1.85;1.40;;;7.30;60.50;9.10;102463.00;;;;5330855;26;20228;-76
2024/04/22 02:27:12;;;;;;;2.15;1.27;;;7.20;60.50;9.10;102456.00;;;;5322834;26;20232;-76
2024/04/22 02:29:41;;;;;;;1.70;1.30;;;7.20;60.50;9.10;102452.00;;;;5341968;26;20333;-76
2024/04/22 02:32:09;;;;;;;2.05;1.27;;;7.20;60.50;9.00;102448.00;;;;5340291;26;20224;-76
2024/04/22 02:34:38;;;;;;;5.78;1.40;;;7.10;61.20;9.00;102450.00;;;;5314211;26;20235;-76
2024/04/22 02:37:04;;;;;;;2.00;1.55;;;7.10;60.50;9.00;102449.00;;;;5356117;26;20576;-76
2024/04/22 02:39:33;;;;;;;1.42;1.13;;;7.10;60.60;9.00;102456.00;;;;5323079;26;20236;-76
2024/04/22 02:41:59;;;;;;;2.25;1.40;;;7.10;60.60;8.90;102444.00;;;;5313315;26;20236;-76
2024/04/22 02:44:27;;;;;;;2.15;1.40;;;7.00;60.60;8.90;102454.00;;;;5318681;26;20231;-76
2024/04/22 02:46:53;;;;;;;1.75;1.23;;;7.00;60.60;8.90;102452.00;;;;5326928;26;20225;-76
2024/04/22 02:49:24;;;;;;;1.35;1.17;;;7.00;60.60;8.80;102455.00;;;;5333349;26;20243;-76
2024/04/22 02:51:50;;;;;;;1.73;1.35;;;6.90;60.60;8.80;102456.00;;;;5342732;26;20227;-76
2024/04/22 02:54:25;;;;;;;2.08;1.60;;;6.90;60.50;8.70;102465.00;;;;5329790;26;20342;-76
2024/04/22 02:56:51;;;;;;;2.10;1.85;;;6.90;60.60;8.70;102459.00;;;;5327688;26;20819;-76
2024/04/22 02:59:19;;;;;;;2.25;1.40;;;6.90;60.60;8.70;102460.00;;;;5314565;26;20522;-76
2024/04/22 03:01:49;;;;;;;10.18;1.88;;;6.80;60.50;8.60;102460.00;;;;5324477;26;20247;-76
2024/04/22 03:04:18;;;;;;;1.75;1.30;;;6.80;60.50;8.60;102457.00;;;;5335069;26;20736;-76
2024/04/22 03:06:47;;;;;;;1.80;1.42;;;6.80;60.50;8.60;102447.00;;;;5340350;26;20278;-76
2024/04/22 03:09:15;;;;;;;1.88;1.63;;;6.70;60.60;8.60;102457.00;;;;5341428;26;20232;-76
2024/04/22 03:11:41;;;;;;;2.33;1.42;;;6.70;60.60;8.60;102465.00;;;;5334390;26;20240;-76
2024/04/22 03:14:10;;;;;;;1.88;1.40;;;6.70;60.70;8.60;102452.00;;;;5331085;26;20234;-76
2024/04/22 03:16:36;;;;;;;2.25;1.30;;;6.60;60.60;8.50;102452.00;;;;5333509;26;20236;-76
2024/04/22 03:19:05;;;;;;;2.15;1.50;;;6.60;60.70;8.50;102449.00;;;;5340185;26;20236;-76
2024/04/22 03:21:31;;;;;;;1.50;1.20;;;6.60;60.90;8.50;102447.00;;;;5314203;26;20326;-76
2024/04/22 03:24:02;;;;;;;3.72;1.33;;;6.60;60.90;8.50;102452.00;;;;5336151;26;20247;-76
2024/04/22 03:26:28;;;;;;;1.90;1.35;;;6.60;61.00;8.50;102452.00;;;;5331556;26;20236;-76
2024/04/22 03:28:56;;;;;;;2.42;1.55;;;6.60;61.10;8.50;102449.00;;;;5305869;26;20237;-76
2024/04/22 03:31:23;;;;;;;2.05;1.70;;;6.60;61.20;8.50;102451.00;;;;5330306;26;20243;-76
2024/04/22 03:33:52;;;;;;;1.95;1.63;;;6.60;61.30;8.40;102448.00;;;;5333504;26;20239;-76
2024/04/22 03:36:18;;;;;;;2.25;1.42;;;6.50;61.30;8.40;102450.00;;;;5319411;26;20299;-76
2024/04/22 03:38:47;;;;;;;1.83;1.50;;;6.60;61.30;8.40;102444.00;;;;5324345;26;20342;-77
2024/04/22 03:41:18;;;;;;;1.83;1.42;;;6.50;61.30;8.40;102443.00;;;;5345439;26;20235;-77
2024/04/22 03:43:47;;;;;;;2.05;1.50;;;6.50;61.20;8.40;102449.00;;;;5337379;26;20332;-76
2024/04/22 03:51:46;;;;;;;1.80;1.30;;;6.50;61.10;8.40;102434.00;;;;5341352;26;21001;-76
2024/04/22 03:54:14;;;;;;;1.90;1.45;;;6.50;61.10;8.40;102432.00;;;;5321131;26;20235;-76
2024/04/22 03:56:45;;;;;;;2.10;1.45;;;6.50;61.10;8.40;102432.00;;;;5326196;26;20241;-76
2024/04/22 03:59:14;;;;;;;2.30;1.42;;;6.50;61.10;8.40;102428.00;;;;5339210;26;20235;-76
2024/04/22 04:01:43;;;;;;;1.88;1.58;;;6.50;61.10;8.40;102424.00;;;;5340461;26;20569;-76
2024/04/22 04:04:09;;;;;;;5.47;1.60;;;6.50;61.00;8.40;102416.00;;;;5321311;26;20424;-76
2024/04/22 04:06:37;;;;;;;1.70;1.25;;;6.40;61.00;8.40;102420.00;;;;5320476;26;21169;-77
2024/04/22 04:09:03;;;;;;;1.80;1.30;;;6.40;61.10;8.40;102419.00;;;;5319842;26;20236;-76
2024/04/22 04:11:37;;;;;;;1.95;1.58;;;6.40;61.20;8.40;102421.00;;;;5324488;26;20242;-76
2024/04/22 04:14:07;;;;;;;1.75;1.33;;;6.40;61.30;8.30;102414.00;;;;5310306;26;20772;-76
2024/04/22 04:16:36;;;;;;;1.67;1.38;;;6.40;61.40;8.30;102418.00;;;;5337922;26;20246;-77
2024/04/22 04:19:02;;;;;;;2.15;1.55;;;6.40;61.40;8.30;102414.00;;;;5337818;26;20660;-76
2024/04/22 04:21:31;;;;;;;1.75;1.50;;;6.40;61.40;8.40;102414.00;;;;5352808;26;20286;-76
2024/04/22 04:23:58;;;;;;;3.05;1.45;;;6.40;61.40;8.30;102412.00;;;;5337950;26;20235;-76
2024/04/22 04:26:26;;;;;;;2.08;1.10;;;6.40;61.40;8.40;102416.00;;;;5340908;26;20577;-77
2024/04/22 04:28:53;;;;;;;2.95;1.75;;;6.40;61.50;8.40;102412.00;;;;5307265;26;20296;-77
2024/04/22 04:31:24;;;;;;;1.63;1.40;;;6.40;61.50;8.30;102412.00;;;;5323166;26;20568;-76
2024/04/22 04:33:50;;;;;;;1.70;1.25;;;6.40;61.60;8.40;102413.00;;;;5339413;26;20313;-76
2024/04/22 04:36:18;;;;;;;2.42;1.70;;;6.40;61.60;8.40;102416.00;;;;5306480;26;20338;-77
2024/04/22 04:38:44;;;;;;;1.75;1.45;;;6.40;61.70;8.40;102408.00;;;;5314561;26;20236;-77
2024/04/22 04:41:13;;;;;;;1.42;1.20;;;6.40;61.70;8.40;102416.00;;;;5348934;26;20330;-77
2024/04/22 04:43:42;;;;;;;1.60;1.30;;;6.40;61.80;8.40;102413.00;;;;5339582;26;20335;-77
2024/04/22 04:46:08;;;;;;;1.88;1.58;;;6.40;62.00;8.40;102407.00;;;;5340699;26;20367;-77
2024/04/22 04:48:41;;;;;;;1.90;1.10;;;6.50;62.10;8.50;102410.00;;;;5334824;26;20244;-77
2024/04/22 04:51:07;;;;;;;1.88;1.30;;;6.50;62.10;8.50;102413.00;;;;5324617;26;20283;-77
2024/04/22 04:53:35;;;;;;;1.30;1.13;;;6.50;62.20;8.50;102410.00;;;;5324623;26;20293;-77
2024/04/22 04:56:01;;;;;;;1.83;1.33;;;6.50;62.20;8.60;102409.00;;;;5323705;26;20240;-77
2024/04/22 04:58:30;;;;;;;1.67;1.50;;;6.60;62.30;8.60;102409.00;;;;5337065;26;20340;-77
2024/04/22 05:00:56;;;;;;;2.17;1.35;;;6.60;62.20;8.60;102415.00;;;;5333829;26;20236;-77
2024/04/22 05:03:25;;;;;;;2.00;1.20;;;6.60;62.30;8.70;102410.00;;;;5322983;26;20345;-77
2024/04/22 05:05:59;;;;;;;1.27;1.08;;;6.70;62.50;8.60;102419.00;;;;5324294;26;20239;-77
2024/04/22 05:08:28;;;;;;;1.83;1.20;;;6.70;62.50;8.70;102424.00;;;;5343048;26;20269;-77
2024/04/22 05:10:56;;;;;;;1.52;1.02;;;6.70;62.50;8.80;102424.00;;;;5342025;26;20336;-77
2024/04/22 05:13:25;;;;;;;2.70;1.33;;;6.80;62.50;8.80;102420.00;;;;5336789;26;20226;-77
2024/04/22 05:15:51;;;;;;;2.35;1.40;;;6.80;62.50;8.90;102423.00;;;;5323192;26;20240;-77
2024/04/22 05:18:20;;;;;;;2.17;1.60;;;6.80;62.60;8.90;102431.00;;;;5308471;26;20812;-76
2024/04/22 05:20:46;;;;;;;1.50;1.23;;;6.90;62.70;9.00;102424.00;;;;5325839;26;20241;-77
2024/04/22 05:23:17;;;;;;;1.63;1.10;;;6.90;62.60;9.00;102420.00;;;;5358155;26;20343;-77
2024/04/22 05:25:43;;;;;;;2.30;1.38;;;7.00;62.80;9.10;102423.00;;;;5347262;26;20227;-77
2024/04/22 05:28:12;;;;;;;1.60;1.33;;;7.00;62.80;9.10;102423.00;;;;5342952;26;20235;-77
2024/04/22 05:30:37;;;;;;;1.20;0.98;;;7.10;62.90;9.10;102419.00;;;;5337537;26;20244;-77
2024/04/22 05:36:11;;;;;;;1.23;0.95;;;7.10;62.90;9.20;102407.00;;;;5328068;26;20280;-77
2024/04/22 05:38:44;;;;;;;3.00;1.17;;;7.30;63.10;9.30;102406.00;;;;5311409;26;20251;-77
2024/04/22 05:41:14;;;;;;;2.17;1.20;;;7.30;63.70;9.40;102408.00;;;;5325278;26;20295;-77
2024/04/22 05:43:42;;;;;;;2.90;1.33;;;7.40;63.10;9.40;102411.00;;;;5322178;26;20334;-77
2024/04/22 05:46:10;;;;;;;1.88;1.35;;;7.40;63.20;9.50;102401.00;;;;5337699;26;20223;-79
2024/04/22 05:48:39;;;;;;;2.20;1.42;;;7.50;63.30;9.60;102408.00;;;;5343352;26;20261;-79
2024/04/22 05:51:08;;;;;;;1.23;1.00;;;7.60;63.40;9.60;102413.00;;;;5317338;26;20607;-80
2024/04/22 05:53:37;;;;;;;3.92;1.50;;;7.60;63.50;9.70;102405.00;;;;5318677;26;20227;-80
2024/04/22 05:56:06;;;;;;;2.05;1.17;;;7.70;63.60;9.80;102400.00;;;;5342850;26;20244;-81
2024/04/22 05:58:35;;;;;;;2.08;1.17;;;7.70;63.50;9.90;102409.00;;;;5336852;26;20278;-81
2024/04/22 06:01:01;;;;;;;2.70;1.30;;;7.80;63.50;9.90;102403.00;;;;5335349;26;20258;-81
2024/04/22 06:03:29;;;;;;;3.10;1.25;;;7.90;63.60;10.00;102410.00;;;;5323089;26;20558;-80
2024/04/22 06:05:55;;;;;;;2.15;1.20;;;8.00;63.80;10.10;102413.00;;;;5333987;26;20232;-81
2024/04/22 06:08:24;;;;;;;1.92;1.50;;;8.00;63.80;10.20;102415.00;;;;5334032;26;20337;-81
2024/04/22 06:10:50;;;;;;;1.95;1.20;;;8.10;63.80;10.20;102411.00;;;;5327485;26;20244;-81
2024/04/22 06:13:21;;;;;;;1.88;1.30;;;8.20;63.90;10.30;102407.00;;;;5318592;26;20235;-81
2024/04/22 06:15:47;;;;;;;1.77;1.25;;;8.30;63.90;10.40;102412.00;;;;5343482;26;20881;-80
2024/04/22 06:18:16;;;;;;;1.45;1.15;;;8.40;63.90;10.50;102405.00;;;;5343195;26;20285;-81
2024/04/22 06:20:42;;;;;;;1.45;1.13;;;8.50;63.90;10.60;102405.00;;;;5337427;26;20277;-81
2024/04/22 06:23:11;;;;;;;2.45;1.38;;;8.50;63.90;10.70;102402.00;;;;5331799;26;20224;-81
2024/04/22 06:25:37;;;;;;;1.58;1.30;;;8.60;64.00;10.80;102396.00;;;;5330807;26;20236;-81
2024/04/22 06:28:06;;;;;;;1.10;1.00;;;8.70;63.90;10.90;102398.00;;;;5322556;26;20730;-81
2024/04/22 06:30:35;;;;;;;2.58;1.23;;;8.80;64.00;11.00;102399.00;;;;5338737;26;20235;-80
2024/04/22 06:33:03;;;;;;;1.88;1.00;;;8.90;64.10;11.10;102401.00;;;;5340880;26;20741;-81
2024/04/22 06:35:29;;;;;;;1.40;1.08;;;9.00;64.20;11.20;102394.00;;;;5330727;26;20235;-81
2024/04/22 06:37:59;;;;;;;1.33;1.15;;;9.10;64.30;11.30;102399.00;;;;5347887;26;20339;-81
2024/04/22 06:40:25;;;;;;;1.10;0.88;;;9.20;64.30;11.40;102395.00;;;;5357750;26;20234;-81
2024/04/22 06:42:53;;;;;;;1.98;1.38;;;9.30;64.30;11.50;102398.00;;;;5311347;26;20262;-81
2024/04/22 06:45:19;;;;;;;2.70;1.27;;;9.40;64.30;11.60;102389.00;;;;5324633;26;20296;-79
2024/04/22 06:47:51;;;;;;;1.50;1.00;;;9.50;64.20;11.60;102372.00;;;;5336040;26;20332;-81
2024/04/22 06:50:17;;;;;;;1.95;1.05;;;9.60;63.90;11.80;102385.00;;;;5319140;26;20371;-82
2024/04/22 06:52:45;;;;;;;1.98;1.20;;;9.70;63.80;11.80;102384.00;;;;5354290;26;20265;-79
2024/04/22 06:55:11;;;;;;;2.45;1.02;;;9.80;63.60;11.90;102387.00;;;;5341972;26;20303;-80
2024/04/22 06:57:40;;;;;;;1.33;0.82;;;9.90;63.40;12.00;102385.00;;;;5363017;26;20234;-79
2024/04/22 07:00:07;;;;;;;2.13;1.05;;;10.00;63.10;12.10;102374.00;;;;5338430;26;20299;-80
2024/04/22 07:02:35;;;;;;;1.58;0.80;;;10.10;62.90;12.10;102393.00;;;;5316145;26;20236;-79
2024/04/22 07:05:04;;;;;;;3.45;1.33;;;10.10;62.70;12.20;102385.00;;;;5339917;26;20337;-79
2024/04/22 07:07:34;;;;;;;3.05;1.25;;;10.20;62.60;12.30;102388.00;;;;5355952;26;20723;-78
2024/04/22 07:10:00;;;;;;;2.22;1.10;;;10.30;62.50;12.40;102390.00;;;;5341693;26;20247;-78
2024/04/22 07:12:29;;;;;;;3.15;1.02;;;10.40;62.30;12.50;102384.00;;;;5338410;26;20227;-79
2024/04/22 07:14:55;;;;;;;4.00;1.75;;;10.40;62.20;12.50;102392.00;;;;5333978;26;20815;-79
2024/04/22 07:17:24;;;;;;;3.28;1.42;;;10.50;62.00;12.60;102388.00;;;;5327579;26;20571;-79
2024/04/22 07:19:50;;;;;;;5.55;1.70;;;10.60;62.20;12.60;102391.00;;;;5347504;26;20235;-80
2024/04/22 07:22:23;;;;;;;2.50;1.15;;;10.70;62.10;12.70;102388.00;;;;5339479;26;20243;-79
2024/04/22 07:24:50;;;;;;;1.92;1.05;;;10.70;62.00;12.80;102391.00;;;;5322691;26;20236;-79
2024/04/22 07:27:19;;;;;;;1.38;1.00;;;10.80;61.80;12.80;102382.00;;;;5329345;26;20940;-79
2024/04/22 07:29:46;;;;;;;2.13;1.15;;;10.90;61.60;12.90;102381.00;;;;5325286;26;20304;-79
2024/04/22 07:32:16;;;;;;;3.65;1.10;;;11.00;61.50;12.90;102381.00;;;;5351006;26;20236;-79
2024/04/22 07:34:43;;;;;;;2.20;1.15;;;11.00;61.50;13.10;102388.00;;;;5336575;26;20273;-80
2024/04/22 07:37:27;;;;;;;1.50;0.88;;;11.10;61.60;13.10;102381.00;;;;5341569;26;20258;-79
2024/04/22 07:40:10;;;;;;;2.00;0.85;;;11.20;61.80;13.20;102372.00;;;;5346390;26;20573;-80
2024/04/22 07:42:39;;;;;;;1.50;0.90;;;11.30;61.50;13.30;102370.00;;;;5330401;26;20278;-80
2024/04/22 07:45:06;;;;;;;1.95;1.00;;;11.30;61.40;13.40;102366.00;;;;5325484;26;20315;-81
2024/04/22 07:47:35;;;;;;;2.75;1.33;;;11.40;61.40;13.50;102376.00;;;;5340476;26;20776;-80
2024/04/22 07:50:01;;;;;;;2.33;0.85;;;11.50;61.50;13.60;102371.00;;;;5338940;26;20278;-80
2024/04/22 07:52:34;;;;;;;2.80;0.93;;;11.60;61.50;13.60;102371.00;;;;5356041;26;20719;-80
2024/04/22 07:55:02;;;;;;;3.60;1.20;;;11.70;61.40;13.80;102374.00;;;;5310107;26;20349;-80
2024/04/22 07:57:33;;;;;;;2.47;1.10;;;11.70;61.30;13.80;102370.00;;;;5342635;26;20302;-80
2024/04/22 08:00:02;;;;;;;2.20;0.82;;;11.90;61.60;13.90;102367.00;;;;5309869;26;20329;-80
2024/04/22 08:02:31;;;;;;;5.05;1.42;;;11.90;61.50;14.00;102367.00;;;;5322022;26;20285;-80
2024/04/22 08:04:58;;;;;;;4.93;1.20;;;12.00;61.20;14.10;102355.00;;;;5355458;26;20266;-80
2024/04/22 08:07:27;;;;;;;3.30;1.10;;;12.10;61.00;14.20;102356.00;;;;5340116;26;20235;-80
2024/04/22 08:09:56;;;;;;;2.47;1.10;;;12.20;61.30;14.20;102362.00;;;;5353672;26;20279;-80
2024/04/22 08:12:24;;;;;;;2.63;1.20;;;12.30;60.50;14.30;102361.00;;;;5341041;26;20613;-80
2024/04/22 08:14:50;;;;;;;1.52;0.90;;;12.40;60.40;14.30;102365.00;;;;5344083;26;20301;-81
2024/04/22 08:17:19;;;;;;;3.90;1.45;;;12.40;60.20;14.40;102362.00;;;;5340867;26;20320;-79
2024/04/22 08:19:46;;;;;;;2.53;1.00;;;12.50;60.20;14.50;102367.00;;;;5358211;26;20290;-79
2024/04/22 08:22:18;;;;;;;2.00;0.90;;;12.60;60.20;14.60;102361.00;;;;5336118;26;20625;-80
2024/04/22 08:24:44;;;;;;;3.05;1.23;;;12.60;60.20;14.70;102364.00;;;;5368517;26;20226;-80
2024/04/22 08:27:16;;;;;;;2.42;0.95;;;12.70;60.20;14.80;102364.00;;;;5317131;26;20240;-80
2024/04/22 08:29:41;;;;;;;2.70;0.90;;;12.80;60.20;14.80;102366.00;;;;5320085;26;20223;-81
2024/04/22 08:32:10;;;;;;;1.83;1.00;;;12.90;60.00;14.90;102367.00;;;;5335565;26;20767;-80
2024/04/22 08:34:36;;;;;;;3.33;1.17;;;13.00;59.80;15.00;102359.00;;;;5338428;26;20287;-80
2024/04/22 08:37:05;;;;;;;2.38;1.00;;;13.10;59.80;15.00;102364.00;;;;5340089;26;20289;-81
2024/04/22 08:39:31;;;;;;;4.40;1.13;;;13.20;59.50;15.20;102370.00;;;;5306698;26;20345;-80
2024/04/22 08:42:00;;;;;;;2.22;1.05;;;13.20;59.50;15.30;102365.00;;;;5323141;26;20247;-81
2024/04/22 08:44:29;;;;;;;2.22;0.98;;;13.30;59.30;15.30;102363.00;;;;5320439;26;20236;-81
2024/04/22 08:46:57;;;;;;;3.25;0.95;;;13.40;59.10;15.40;102367.00;;;;5339187;26;20297;-80
2024/04/22 08:49:23;;;;;;;2.63;0.75;;;13.50;59.00;15.40;102362.00;;;;5352447;26;20350;-80
2024/04/22 08:51:57;;;;;;;2.08;0.82;;;13.60;58.70;15.50;102365.00;;;;5346990;26;20269;-79
2024/04/22 08:54:25;;;;;;;1.83;0.70;;;13.60;58.60;15.60;102360.00;;;;5340970;26;20230;-81
2024/04/22 08:56:57;;;;;;;4.47;0.90;;;13.70;58.70;15.70;102369.00;;;;5339602;26;20273;-80
2024/04/22 08:59:23;;;;;;;1.83;0.85;;;13.80;58.70;15.90;102367.00;;;;5340263;26;20223;-80
2024/04/22 09:02:03;;;;;;;1.33;0.47;;;13.90;58.70;15.90;102360.00;;;;5352878;26;20234;-80
2024/04/22 09:04:30;;;;;;;1.60;0.82;;;14.00;58.20;16.10;102352.00;;;;5347414;26;20344;-80
2024/04/22 09:06:59;;;;;;;2.13;0.95;;;14.10;58.10;16.20;102343.00;;;;5338625;26;20235;-81
2024/04/22 09:09:27;;;;;;;3.28;0.98;;;14.20;57.70;16.20;102353.00;;;;5337346;26;20714;-81
2024/04/22 09:11:56;;;;;;;3.42;0.80;;;14.30;57.40;16.40;102344.00;;;;5317796;26;20324;-81
2024/04/22 09:14:22;;;;;;;2.97;1.00;;;14.40;57.30;16.50;102342.00;;;;5330388;26;20326;-81
2024/04/22 09:16:51;;;;;;;2.42;0.80;;;14.50;57.00;16.60;102336.00;;;;5347897;26;20395;-80
2024/04/22 09:19:25;;;;;;;3.67;1.10;;;14.60;56.70;16.60;102334.00;;;;5338277;26;20267;-81
2024/04/22 09:21:57;;;;;;;2.33;1.10;;;14.70;56.30;16.70;102325.00;;;;5336925;26;20243;-80
2024/04/22 09:24:24;;;;;;;3.55;1.05;;;14.80;56.20;16.80;102328.00;;;;5339755;26;20266;-81
2024/04/22 09:26:52;;;;;;;1.83;0.80;;;14.90;56.10;16.80;102334.00;;;;5332737;26;20285;-80
2024/04/22 09:29:20;;;;;;;5.07;1.38;;;14.90;55.80;16.80;102326.00;;;;5342556;26;20235;-81
2024/04/22 09:31:50;;;;;;;2.17;0.60;;;14.90;55.20;16.70;102319.00;;;;5327189;26;20345;-79
2024/04/22 09:34:25;;;;;;;1.05;0.70;;;14.90;55.20;16.60;102335.00;;;;5340748;26;20231;-79
2024/04/22 09:36:55;;;;;;;1.42;0.50;;;14.90;53.80;16.40;102343.00;;;;5343117;26;20327;-79
2024/04/22 09:39:22;;;;;;;2.25;0.98;;;14.80;51.80;16.20;102348.00;;;;5342027;26;20342;-80
2024/04/22 09:41:52;;;;;;;1.58;0.88;;;14.70;52.00;16.10;102349.00;;;;5341290;26;20331;-79
2024/04/22 09:44:20;;;;;;;1.20;0.70;;;14.60;52.40;16.00;102354.00;;;;5341017;26;20286;-80
2024/04/22 09:46:52;;;;;;;0.85;0.73;;;14.50;52.70;15.90;102361.00;;;;5326027;26;20775;-80
2024/04/22 09:49:18;;;;;;;0.82;0.52;;;14.40;53.00;15.80;102375.00;;;;5307727;26;20690;-80
2024/04/22 09:51:52;;;;;;;1.33;0.80;;;14.20;53.00;15.70;102369.00;;;;5335399;26;20240;-80
2024/04/22 09:54:18;;;;;;;1.58;0.77;;;14.10;53.00;15.70;102371.00;;;;5337979;26;20370;-79
2024/04/22 09:56:49;;;;;;;1.27;0.85;;;14.00;53.30;15.60;102384.00;;;;5333675;26;20266;-80
2024/04/22 09:59:19;;;;;;;1.13;0.70;;;13.90;53.80;15.60;102387.00;;;;5343107;26;20728;-80
2024/04/22 10:01:48;;;;;;;2.85;1.00;;;13.90;54.20;15.60;102398.00;;;;5339833;26;20655;-80
2024/04/22 10:04:14;;;;;;;5.25;3.20;;;13.70;54.40;15.50;102391.00;;;;5326639;26;20295;-80
2024/04/22 10:06:43;;;;;;;3.80;1.88;;;13.70;54.00;15.40;102360.00;;;;5333872;26;20242;-80
2024/04/22 10:09:20;;;;;;;3.28;1.00;;;13.60;53.90;15.20;102350.00;;;;5359719;26;20235;-81
2024/04/22 10:11:49;;;;;;;1.67;0.85;;;13.50;53.80;15.20;102349.00;;;;5330976;26;20932;-80
2024/04/22 10:14:16;;;;;;;2.33;1.90;;;13.40;54.10;15.20;102340.00;;;;5327777;26;20244;-80
2024/04/22 10:16:55;;;;;;;1.92;1.50;;;13.30;54.20;15.10;102333.00;;;;5328038;26;20605;-80
2024/04/22 10:19:22;;;;;;;2.17;1.42;;;13.30;54.80;15.20;102342.00;;;;5337619;26;20341;-80
2024/04/22 10:21:52;;;;;;;2.13;1.13;;;13.20;55.10;15.20;102330.00;;;;5327228;26;20240;-80
2024/04/22 10:24:30;;;;;;;2.42;0.90;;;13.20;55.30;15.20;102339.00;;;;5341136;26;20271;-80
2024/04/22 10:26:59;;;;;;;1.55;1.00;;;13.30;55.50;15.30;102335.00;;;;5337942;26;20306;-80
2024/04/22 10:29:25;;;;;;;1.25;0.80;;;13.30;55.60;15.40;102333.00;;;;5336350;26;20270;-80
2024/04/22 10:31:54;;;;;;;1.25;0.82;;;13.30;55.60;15.50;102330.00;;;;5339936;26;20286;-80
2024/04/22 10:34:20;;;;;;;1.52;0.80;;;13.40;55.80;15.50;102323.00;;;;5340349;26;20347;-79
2024/04/22 10:36:49;;;;;;;1.85;1.00;;;13.50;56.00;15.60;102323.00;;;;5356946;26;20564;-79
2024/04/22 10:39:16;;;;;;;3.33;0.98;;;13.60;55.90;15.70;102316.00;;;;5328537;26;20290;-80
2024/04/22 10:41:47;;;;;;;2.30;1.00;;;13.80;55.90;15.80;102318.00;;;;5336931;26;20231;-80
2024/04/22 10:44:13;;;;;;;2.50;0.98;;;13.90;55.70;16.00;102317.00;;;;5341878;26;20321;-80
2024/04/22 10:46:42;;;;;;;2.78;0.90;;;14.10;55.70;16.10;102309.00;;;;5339686;26;20244;-80
2024/04/22 10:49:09;;;;;;;2.08;1.15;;;14.30;55.80;16.20;102302.00;;;;5340348;26;20240;-80
2024/04/22 10:51:37;;;;;;;3.90;0.80;;;14.40;55.40;16.30;102305.00;;;;5321776;26;20266;-79
2024/04/22 10:54:03;;;;;;;1.70;0.90;;;14.50;55.50;16.50;102298.00;;;;5344486;26;20381;-78
2024/04/22 10:56:33;;;;;;;1.25;0.70;;;14.70;55.40;16.70;102296.00;;;;5343750;26;21135;-78
2024/04/22 10:59:02;;;;;;;1.90;1.33;;;14.90;55.40;16.80;102303.00;;;;5337452;26;20298;-78
2024/04/22 11:01:32;;;;;;;1.80;1.10;;;15.00;55.70;17.00;102303.00;;;;5338426;26;20235;-78
2024/04/22 11:03:58;;;;;;;1.35;0.90;;;15.20;55.50;17.10;102302.00;;;;5340036;26;20231;-79
2024/04/22 11:06:27;;;;;;;2.03;1.20;;;15.30;54.90;17.20;102298.00;;;;5340326;26;20361;-78
2024/04/22 11:08:53;;;;;;;3.20;1.50;;;15.40;53.90;17.30;102306.00;;;;5338084;26;20275;-79